createdAt,value
2018-11-28T00:00:43.803Z,77.65
2018-11-28T00:03:11.276Z,78.34
2018-11-28T00:05:38.652Z,78.39
2018-11-28T00:08:06.126Z,78.49
2018-11-28T00:10:33.750Z,78.23
2018-11-28T00:13:01.261Z,78.72
2018-11-28T00:15:28.732Z,78.98
2018-11-28T00:17:56.179Z,79.10
2018-11-28T00:20:23.652Z,79.61
2018-11-28T00:22:51.198Z,79.86
2018-11-28T00:25:18.996Z,79.65
2018-11-28T00:27:46.535Z,79.52
2018-11-28T00:30:18.714Z,79.26
2018-11-28T00:32:46.255Z,79.33
2018-11-28T00:35:14.862Z,79.52
2018-11-28T00:37:42.300Z,79.30
2018-11-28T00:40:13.663Z,78.66
2018-11-28T00:42:41.395Z,78.78
2018-11-28T00:45:13.824Z,78.30
2018-11-28T00:47:41.344Z,78.24
2018-11-28T00:50:10.205Z,78.15
2018-11-28T00:52:37.880Z,78.15
2018-11-28T00:55:07.349Z,78.48
2018-11-28T00:57:34.947Z,78.90
2018-11-28T01:00:02.541Z,79.14
2018-11-28T01:02:29.981Z,78.76
2018-11-28T01:04:57.412Z,78.47
2018-11-28T01:07:24.833Z,78.67
2018-11-28T01:09:52.325Z,78.69
2018-11-28T01:12:19.720Z,78.90
2018-11-28T01:14:47.108Z,78.94
2018-11-28T01:17:14.523Z,79.22
2018-11-28T01:19:41.920Z,79.13
2018-11-28T01:22:09.422Z,78.99
2018-11-28T01:24:36.836Z,79.02
2018-11-28T01:27:04.783Z,79.28
2018-11-28T01:29:32.216Z,79.84
2018-11-28T01:31:59.658Z,79.86
2018-11-28T01:34:27.093Z,80.00
2018-11-28T01:36:54.550Z,80.58
2018-11-28T01:39:21.944Z,80.56
2018-11-28T01:41:49.444Z,81.04
2018-11-28T01:44:16.973Z,81.38
2018-11-28T01:46:44.496Z,81.58
2018-11-28T01:49:11.892Z,82.10
2018-11-28T01:51:39.376Z,82.34
2018-11-28T01:54:06.941Z,82.75
2018-11-28T01:56:34.517Z,82.71
2018-11-28T01:59:01.896Z,83.52
2018-11-28T02:01:29.340Z,84.60
2018-11-28T02:03:56.835Z,85.19
2018-11-28T02:06:24.408Z,85.23
2018-11-28T02:08:51.806Z,85.89
2018-11-28T02:11:21.992Z,86.25
2018-11-28T02:13:49.404Z,86.73
2018-11-28T02:16:16.880Z,87.13
2018-11-28T02:18:44.331Z,87.24
2018-11-28T02:21:11.716Z,87.23
2018-11-28T02:23:39.346Z,87.20
2018-11-28T02:26:06.864Z,87.73
2018-11-28T02:28:34.376Z,87.60
2018-11-28T02:31:01.968Z,87.72
2018-11-28T02:33:29.441Z,88.13
2018-11-28T02:37:27.869Z,88.31
2018-11-28T02:39:55.456Z,88.37
2018-11-28T02:42:22.860Z,88.18
2018-11-28T02:44:50.393Z,88.69
2018-11-28T02:47:17.838Z,88.77
2018-11-28T02:49:45.304Z,89.04
2018-11-28T02:52:12.728Z,88.80
2018-11-28T02:54:40.205Z,89.01
2018-11-28T02:57:07.615Z,89.08
2018-11-28T02:59:35.099Z,89.17
2018-11-28T03:02:02.616Z,89.24
2018-11-28T03:04:30.105Z,89.64
2018-11-28T03:06:57.533Z,89.59
2018-11-28T03:09:25.072Z,89.67
2018-11-28T03:11:52.595Z,89.32
2018-11-28T03:14:20.075Z,89.70
2018-11-28T03:16:47.519Z,89.61
2018-11-28T03:19:14.977Z,89.56
2018-11-28T03:21:42.452Z,89.79
2018-11-28T03:24:09.897Z,89.78
2018-11-28T03:26:37.329Z,89.79
2018-11-28T03:29:04.844Z,90.16
2018-11-28T03:31:32.495Z,90.26
2018-11-28T03:33:59.905Z,89.87
2018-11-28T03:36:27.503Z,90.01
2018-11-28T03:38:54.940Z,90.29
2018-11-28T03:41:22.388Z,89.92
2018-11-28T03:43:49.796Z,89.98
2018-11-28T03:46:17.219Z,90.15
2018-11-28T03:48:44.589Z,90.23
2018-11-28T03:51:12.071Z,90.22
2018-11-28T03:53:39.461Z,90.83
2018-11-28T03:56:06.927Z,90.72
2018-11-28T03:58:34.423Z,90.71
2018-11-28T04:01:01.852Z,90.58
2018-11-28T04:03:29.375Z,90.40
2018-11-28T04:05:56.924Z,90.71
2018-11-28T04:08:24.344Z,90.47
2018-11-28T04:10:51.819Z,90.36
2018-11-28T04:13:19.271Z,90.16
2018-11-28T04:15:46.656Z,89.83
2018-11-28T04:18:14.076Z,89.64
2018-11-28T04:20:41.587Z,89.53
2018-11-28T04:23:09.007Z,89.37
2018-11-28T04:25:36.379Z,88.93
2018-11-28T04:28:03.880Z,88.71
2018-11-28T04:30:31.409Z,88.44
2018-11-28T04:32:58.976Z,87.59
2018-11-28T04:35:26.393Z,87.45
2018-11-28T04:37:53.814Z,87.13
2018-11-28T04:40:21.571Z,86.93
2018-11-28T04:42:49.401Z,86.61
2018-11-28T04:45:21.710Z,86.92
2018-11-28T04:47:50.005Z,86.72
2018-11-28T04:50:17.484Z,86.56
2018-11-28T04:52:45.024Z,86.53
2018-11-28T04:55:19.262Z,85.98
2018-11-28T04:57:46.953Z,85.49
2018-11-28T05:00:17.554Z,84.98
2018-11-28T05:02:45.031Z,84.29
2018-11-28T05:05:12.467Z,83.98
2018-11-28T05:07:40.545Z,83.62
2018-11-28T05:10:10.293Z,82.24
2018-11-28T05:12:37.764Z,81.45
2018-11-28T05:15:13.653Z,81.74
2018-11-28T05:17:41.381Z,81.48
2018-11-28T05:20:10.195Z,81.96
2018-11-28T05:22:37.758Z,81.19
2018-11-28T05:25:07.556Z,80.25
2018-11-28T05:27:35.026Z,79.53
2018-11-28T05:30:02.926Z,79.30
2018-11-28T05:32:30.361Z,79.67
2018-11-28T05:34:57.822Z,80.06
2018-11-28T05:37:25.246Z,80.20
2018-11-28T05:39:52.725Z,79.77
2018-11-28T05:42:20.190Z,79.52
2018-11-28T05:44:47.710Z,79.43
2018-11-28T05:47:15.127Z,80.00
2018-11-28T05:49:42.581Z,80.56
2018-11-28T05:52:10.233Z,80.60
2018-11-28T05:54:37.715Z,80.12
2018-11-28T05:57:05.714Z,79.52
2018-11-28T05:59:33.239Z,79.98
2018-11-28T06:02:00.759Z,79.50
2018-11-28T06:04:28.179Z,79.77
2018-11-28T06:06:55.651Z,79.72
2018-11-28T06:09:23.097Z,80.27
2018-11-28T06:11:50.535Z,80.82
2018-11-28T06:14:18.079Z,81.21
2018-11-28T06:16:45.523Z,81.24
2018-11-28T06:19:12.934Z,80.80
2018-11-28T06:21:40.416Z,80.27
2018-11-28T06:24:07.841Z,79.99
2018-11-28T06:26:35.349Z,80.20
2018-11-28T06:29:02.765Z,80.55
2018-11-28T06:31:30.279Z,79.95
2018-11-28T06:33:57.671Z,79.62
2018-11-28T06:36:25.105Z,79.58
2018-11-28T06:38:52.639Z,79.70
2018-11-28T06:41:20.070Z,79.38
2018-11-28T06:43:47.507Z,78.81
2018-11-28T06:46:15.015Z,78.44
2018-11-28T06:48:42.467Z,78.57
2018-11-28T06:51:09.929Z,77.82
2018-11-28T06:53:37.375Z,78.18
2018-11-28T06:56:04.915Z,77.89
2018-11-28T06:58:32.491Z,77.35
2018-11-28T07:01:00.023Z,77.42
2018-11-28T07:03:27.507Z,78.03
2018-11-28T07:05:54.957Z,77.61
2018-11-28T07:08:22.410Z,78.21
2018-11-28T07:10:49.989Z,78.41
2018-11-28T07:13:17.500Z,78.70
2018-11-28T07:15:44.946Z,78.58
2018-11-28T07:18:23.910Z,78.36
2018-11-28T07:20:51.426Z,78.16
2018-11-28T07:23:18.926Z,77.92
2018-11-28T07:25:46.396Z,78.33
2018-11-28T07:28:13.932Z,78.27
2018-11-28T07:30:41.398Z,78.31
2018-11-28T07:33:10.451Z,78.02
2018-11-28T07:35:37.420Z,78.13
2018-11-28T07:38:05.592Z,77.95
2018-11-28T07:40:33.128Z,78.23
2018-11-28T07:43:10.631Z,78.11
2018-11-28T07:45:42.547Z,78.19
2018-11-28T07:48:10.002Z,77.94
2018-11-28T07:50:37.508Z,77.18
2018-11-28T07:53:05.342Z,76.91
2018-11-28T07:55:32.734Z,77.18
2018-11-28T07:58:00.190Z,76.95
2018-11-28T08:00:27.796Z,77.20
2018-11-28T08:02:55.361Z,76.80
2018-11-28T08:05:22.920Z,76.60
2018-11-28T08:07:50.412Z,76.20
2018-11-28T08:10:26.252Z,76.20
2018-11-28T08:12:56.992Z,76.00
2018-11-28T08:15:24.531Z,76.43
2018-11-28T08:17:51.928Z,76.13
2018-11-28T08:20:19.558Z,75.14
2018-11-28T08:22:47.050Z,75.13
2018-11-28T08:25:15.674Z,74.98
2018-11-28T08:27:44.260Z,74.68
2018-11-28T08:30:14.422Z,74.47
2018-11-28T08:32:42.012Z,73.98
2018-11-28T08:35:10.232Z,74.16
2018-11-28T08:37:37.679Z,74.36
2018-11-28T08:40:08.946Z,74.38
2018-11-28T08:42:36.386Z,74.43
2018-11-28T08:45:04.254Z,74.47
2018-11-28T08:47:31.698Z,74.41
2018-11-28T08:49:59.120Z,74.37
2018-11-28T08:52:26.612Z,73.97
2018-11-28T08:54:54.048Z,73.32
2018-11-28T08:57:21.656Z,72.79
2018-11-28T08:59:49.126Z,73.29
2018-11-28T09:02:16.620Z,73.51
2018-11-28T09:04:44.319Z,73.19
2018-11-28T09:07:11.785Z,73.10
2018-11-28T09:09:39.173Z,72.31
2018-11-28T09:12:06.727Z,72.19
2018-11-28T09:14:34.153Z,72.47
2018-11-28T09:17:01.714Z,71.09
2018-11-28T09:19:29.165Z,70.93
2018-11-28T09:21:56.642Z,71.10
2018-11-28T09:24:24.032Z,71.33
2018-11-28T09:26:51.488Z,70.79
2018-11-28T09:29:18.900Z,70.39
2018-11-28T09:31:46.350Z,70.31
2018-11-28T09:34:13.796Z,69.24
2018-11-28T09:36:41.199Z,69.47
2018-11-28T09:39:08.673Z,69.46
2018-11-28T09:41:36.284Z,68.09
2018-11-28T09:44:03.779Z,67.83
2018-11-28T09:46:31.206Z,66.87
2018-11-28T09:48:58.988Z,66.97
2018-11-28T09:51:26.406Z,67.81
2018-11-28T09:53:53.823Z,68.59
2018-11-28T09:56:21.384Z,68.77
2018-11-28T09:58:48.952Z,68.39
2018-11-28T10:01:16.439Z,68.20
2018-11-28T10:03:43.916Z,66.96
2018-11-28T10:06:11.370Z,66.77
2018-11-28T10:08:38.944Z,66.31
2018-11-28T10:11:06.416Z,65.29
2018-11-28T10:13:33.842Z,65.08
2018-11-28T10:16:01.906Z,65.70
2018-11-28T10:18:28.763Z,66.14
2018-11-28T10:20:56.176Z,66.34
2018-11-28T10:23:23.572Z,66.73
2018-11-28T10:25:51.102Z,66.00
2018-11-28T10:28:18.723Z,66.01
2018-11-28T10:30:46.233Z,66.05
2018-11-28T10:33:13.653Z,65.31
2018-11-28T10:35:41.353Z,65.37
2018-11-28T10:38:08.978Z,65.43
2018-11-28T10:40:37.129Z,65.12
2018-11-28T10:43:05.443Z,65.31
2018-11-28T10:45:32.965Z,65.65
2018-11-28T10:48:00.483Z,64.51
2018-11-28T10:50:27.962Z,65.32
2018-11-28T10:52:55.474Z,65.03
2018-11-28T10:55:24.110Z,64.82
2018-11-28T10:57:51.643Z,65.54
2018-11-28T11:00:25.841Z,65.92
2018-11-28T11:02:59.064Z,66.24
2018-11-28T11:05:32.318Z,65.53
2018-11-28T11:08:05.588Z,65.64
2018-11-28T11:10:38.669Z,65.78
2018-11-28T11:13:11.857Z,66.17
2018-11-28T11:15:39.454Z,66.80
2018-11-28T11:18:10.699Z,66.44
2018-11-28T11:20:37.561Z,66.60
2018-11-28T11:23:06.258Z,65.71
2018-11-28T11:25:33.951Z,65.34
2018-11-28T11:28:01.472Z,65.07
2018-11-28T11:30:29.045Z,65.03
2018-11-28T11:32:56.744Z,64.12
2018-11-28T11:35:24.231Z,64.11
2018-11-28T11:37:51.634Z,64.15
2018-11-28T11:40:19.139Z,64.39
2018-11-28T11:42:46.537Z,63.96
2018-11-28T11:45:14.989Z,63.99
2018-11-28T11:47:42.742Z,63.94
2018-11-28T11:50:14.295Z,63.74
2018-11-28T11:52:41.811Z,63.83
2018-11-28T11:55:11.163Z,63.29
2018-11-28T11:57:38.370Z,63.42
2018-11-28T12:00:11.257Z,62.91
2018-11-28T12:02:39.420Z,63.12
2018-11-28T12:05:08.609Z,63.90
2018-11-28T12:07:36.453Z,64.38
2018-11-28T12:10:09.052Z,64.91
2018-11-28T12:12:35.370Z,65.55
2018-11-28T12:15:03.044Z,65.36
2018-11-28T12:17:30.691Z,65.33
2018-11-28T12:19:58.116Z,64.74
2018-11-28T12:22:25.701Z,64.46
2018-11-28T12:24:53.137Z,64.50
2018-11-28T12:27:20.744Z,63.57
2018-11-28T12:29:48.279Z,63.96
2018-11-28T12:32:15.753Z,64.37
2018-11-28T12:34:43.269Z,63.56
2018-11-28T12:37:10.719Z,63.98
2018-11-28T12:39:38.258Z,64.24
2018-11-28T12:42:06.037Z,64.71
2018-11-28T12:44:33.441Z,64.74
2018-11-28T12:47:00.883Z,64.61
2018-11-28T12:49:28.419Z,64.80
2018-11-28T12:51:55.880Z,65.02
2018-11-28T12:54:23.326Z,64.34
2018-11-28T12:56:50.799Z,64.72
2018-11-28T12:59:18.395Z,65.14
2018-11-28T13:01:45.794Z,64.72
2018-11-28T13:04:13.376Z,64.53
2018-11-28T13:06:40.829Z,64.07
2018-11-28T13:09:08.454Z,64.35
2018-11-28T13:11:36.311Z,63.91
2018-11-28T13:14:03.850Z,64.01
2018-11-28T13:16:31.304Z,64.36
2018-11-28T13:18:58.716Z,64.74
2018-11-28T13:21:26.213Z,65.31
2018-11-28T13:23:53.656Z,65.25
2018-11-28T13:26:21.192Z,65.45
2018-11-28T13:28:48.628Z,65.72
2018-11-28T13:31:16.156Z,65.84
2018-11-28T13:33:43.612Z,65.75
2018-11-28T13:36:11.075Z,65.12
2018-11-28T13:38:38.653Z,65.26
2018-11-28T13:41:06.309Z,65.48
2018-11-28T13:43:33.914Z,65.68
2018-11-28T13:46:07.060Z,65.86
2018-11-28T13:48:29.310Z,65.87
2018-11-28T13:50:56.829Z,65.58
2018-11-28T13:53:24.286Z,66.04
2018-11-28T13:56:57.447Z,65.94
2018-11-28T13:58:23.203Z,66.00
2018-11-28T14:00:50.629Z,66.23
2018-11-28T14:03:18.203Z,66.27
2018-11-28T14:05:45.656Z,66.12
2018-11-28T14:08:13.083Z,66.54
2018-11-28T14:10:40.548Z,66.20
2018-11-28T14:13:08.146Z,65.56
2018-11-28T14:15:35.595Z,65.81
2018-11-28T14:18:06.715Z,66.07
2018-11-28T14:20:34.135Z,66.02
2018-11-28T14:23:01.613Z,66.25
2018-11-28T14:25:29.157Z,65.40
2018-11-28T14:27:56.730Z,66.02
2018-11-28T14:30:25.250Z,65.41
2018-11-28T14:32:52.349Z,65.72
2018-11-28T14:35:20.767Z,66.07
2018-11-28T14:37:48.259Z,66.54
2018-11-28T14:40:17.039Z,66.75
2018-11-28T14:42:45.936Z,67.12
2018-11-28T14:45:14.656Z,66.86
2018-11-28T14:47:42.388Z,66.66
2018-11-28T14:50:12.995Z,66.44
2018-11-28T14:52:40.515Z,66.13
2018-11-28T14:55:12.387Z,66.35
2018-11-28T14:57:40.253Z,66.76
2018-11-28T15:00:12.321Z,66.86
2018-11-28T15:02:39.850Z,67.26
2018-11-28T15:05:19.415Z,67.39
2018-11-28T15:07:47.329Z,67.25
2018-11-28T15:10:15.512Z,67.13
2018-11-28T15:12:43.299Z,67.50
2018-11-28T15:15:10.794Z,67.73
2018-11-28T15:17:38.260Z,68.05
2018-11-28T15:20:07.312Z,68.21
2018-11-28T15:22:34.834Z,69.22
2018-11-28T15:25:03.720Z,68.58
2018-11-28T15:27:31.274Z,68.52
2018-11-28T15:29:59.346Z,68.97
2018-11-28T15:32:26.875Z,69.23
2018-11-28T15:34:57.897Z,69.55
2018-11-28T15:37:21.845Z,69.23
2018-11-28T15:39:49.368Z,69.04
2018-11-28T15:42:16.965Z,69.30
2018-11-28T15:44:44.368Z,68.78
2018-11-28T15:47:11.812Z,69.23
2018-11-28T15:49:39.257Z,68.65
2018-11-28T15:52:06.748Z,69.00
2018-11-28T15:54:34.164Z,68.79
2018-11-28T15:57:01.972Z,69.27
2018-11-28T15:59:29.558Z,69.00
2018-11-28T16:01:57.023Z,69.02
2018-11-28T16:04:24.449Z,68.73
2018-11-28T16:06:52.008Z,69.31
2018-11-28T16:09:25.017Z,69.36
2018-11-28T16:11:52.485Z,69.62
2018-11-28T16:14:20.828Z,69.20
2018-11-28T16:16:48.395Z,68.52
2018-11-28T16:19:15.801Z,68.68
2018-11-28T16:21:43.236Z,68.35
2018-11-28T16:24:10.753Z,68.89
2018-11-28T16:26:38.484Z,69.21
2018-11-28T16:29:05.924Z,69.65
2018-11-28T16:31:33.404Z,69.68
2018-11-28T16:34:00.793Z,69.82
2018-11-28T16:36:28.417Z,69.89
2018-11-28T16:38:55.953Z,69.57
2018-11-28T16:41:23.368Z,69.57
2018-11-28T16:43:51.002Z,69.37
2018-11-28T16:46:18.441Z,69.25
2018-11-28T16:48:45.842Z,69.21
2018-11-28T16:51:13.322Z,68.92
2018-11-28T16:53:40.832Z,68.67
2018-11-28T16:56:08.450Z,68.32
2018-11-28T16:58:35.944Z,68.47
2018-11-28T17:01:03.610Z,68.55
2018-11-28T17:03:31.022Z,68.94
2018-11-28T17:05:58.614Z,68.90
2018-11-28T17:08:26.028Z,68.98
2018-11-28T17:10:53.512Z,69.72
2018-11-28T17:13:21.064Z,69.52
2018-11-28T17:15:48.527Z,69.79
2018-11-28T17:18:15.949Z,69.90
2018-11-28T17:20:43.401Z,69.29
2018-11-28T17:23:10.848Z,69.52
2018-11-28T17:25:38.575Z,69.55
2018-11-28T17:28:06.192Z,70.37
2018-11-28T17:30:33.998Z,70.25
2018-11-28T17:33:01.412Z,70.38
2018-11-28T17:35:28.861Z,70.77
2018-11-28T17:37:56.318Z,71.24
2018-11-28T17:40:25.467Z,71.55
2018-11-28T17:42:54.665Z,71.68
2018-11-28T17:45:22.668Z,71.31
2018-11-28T17:47:50.407Z,70.50
2018-11-28T17:50:22.121Z,70.33
2018-11-28T17:52:56.400Z,70.19
2018-11-28T17:55:24.755Z,70.36
2018-11-28T17:57:52.328Z,69.80
2018-11-28T18:00:19.902Z,69.07
2018-11-28T18:02:47.404Z,68.86
2018-11-28T18:05:14.862Z,69.43
2018-11-28T18:07:42.315Z,69.22
2018-11-28T18:10:13.646Z,69.26
2018-11-28T18:12:52.408Z,69.69
2018-11-28T18:15:20.355Z,69.79
2018-11-28T18:17:47.778Z,69.69
2018-11-28T18:20:15.560Z,69.78
2018-11-28T18:22:43.047Z,69.17
2018-11-28T18:25:10.550Z,68.87
2018-11-28T18:27:38.099Z,68.66
2018-11-28T18:30:07.500Z,68.89
2018-11-28T18:32:34.939Z,68.64
2018-11-28T18:35:02.393Z,68.27
2018-11-28T18:37:29.954Z,68.08
2018-11-28T18:39:57.400Z,68.15
2018-11-28T18:42:24.831Z,67.78
2018-11-28T18:44:52.427Z,67.62
2018-11-28T18:47:19.884Z,67.46
2018-11-28T18:49:47.428Z,67.69
2018-11-28T18:52:15.041Z,67.86
2018-11-28T18:54:42.435Z,68.20
2018-11-28T18:57:09.923Z,68.12
2018-11-28T18:59:37.379Z,67.65
2018-11-28T19:02:05.780Z,67.55
2018-11-28T19:04:33.235Z,67.76
2018-11-28T19:07:00.763Z,67.94
2018-11-28T19:09:33.798Z,67.72
2018-11-28T19:12:01.244Z,67.49
2018-11-28T19:14:28.672Z,68.13
2018-11-28T19:16:56.253Z,68.50
2018-11-28T19:19:23.869Z,68.74
2018-11-28T19:21:51.353Z,68.92
2018-11-28T19:24:18.768Z,68.95
2018-11-28T19:26:46.240Z,69.01
2018-11-28T19:29:13.710Z,69.04
2018-11-28T19:31:41.321Z,68.82
2018-11-28T19:34:08.759Z,68.52
2018-11-28T19:36:36.260Z,68.59
2018-11-28T19:39:06.568Z,68.91
2018-11-28T19:41:34.155Z,68.92
2018-11-28T19:44:01.743Z,68.75
2018-11-28T19:46:29.322Z,69.15
2018-11-28T19:48:57.010Z,69.18
2018-11-28T19:51:24.995Z,69.53
2018-11-28T19:53:52.764Z,70.20
2018-11-28T19:56:20.249Z,70.18
2018-11-28T19:58:47.746Z,69.66
2018-11-28T20:01:15.378Z,69.86
2018-11-28T20:03:42.848Z,69.86
2018-11-28T20:06:10.336Z,69.77
2018-11-28T20:08:37.856Z,69.99
2018-11-28T20:11:05.936Z,70.42
2018-11-28T20:13:33.361Z,70.73
2018-11-28T20:16:00.891Z,70.30
2018-11-28T20:18:28.337Z,70.38
2018-11-28T20:20:55.874Z,70.21
2018-11-28T20:23:23.352Z,69.88
2018-11-28T20:25:51.005Z,70.61
2018-11-28T20:28:18.416Z,70.89
2018-11-28T20:30:45.930Z,71.28
2018-11-28T20:33:14.901Z,70.66
2018-11-28T20:35:43.481Z,70.47
2018-11-28T20:38:43.336Z,69.94
2018-11-28T20:41:10.860Z,70.56
2018-11-28T20:43:38.387Z,70.34
2018-11-28T20:46:06.526Z,70.61
2018-11-28T20:48:34.039Z,70.50
2018-11-28T20:51:01.518Z,71.03
2018-11-28T20:53:29.193Z,71.01
2018-11-28T20:55:56.712Z,71.64
2018-11-28T20:58:24.170Z,72.16
2018-11-28T21:00:51.728Z,72.65
2018-11-28T21:03:19.326Z,72.35
2018-11-28T21:05:46.884Z,72.37
2018-11-28T21:08:14.404Z,72.48
2018-11-28T21:10:41.938Z,72.70
2018-11-28T21:13:10.916Z,72.87
2018-11-28T21:15:39.085Z,72.72
2018-11-28T21:18:07.734Z,72.82
2018-11-28T21:20:35.284Z,73.08
2018-11-28T21:23:07.711Z,73.12
2018-11-28T21:25:35.528Z,72.79
2018-11-28T21:28:04.267Z,73.18
2018-11-28T21:30:32.561Z,73.33
2018-11-28T21:33:00.160Z,73.14
2018-11-28T21:35:29.703Z,73.83
2018-11-28T21:37:57.159Z,74.86
2018-11-28T21:40:24.681Z,74.51
2018-11-28T21:42:52.124Z,74.58
2018-11-28T21:45:20.637Z,74.91
2018-11-28T21:47:48.093Z,75.31
2018-11-28T21:50:16.763Z,75.39
2018-11-28T21:52:44.258Z,75.64
2018-11-28T21:55:14.179Z,76.23
2018-11-28T21:57:41.753Z,76.22
2018-11-28T22:00:13.370Z,76.40
2018-11-28T22:02:40.880Z,77.38
2018-11-28T22:05:09.497Z,78.12
2018-11-28T22:07:37.012Z,78.01
2018-11-28T22:10:07.245Z,78.51
2018-11-28T22:12:34.681Z,79.62
2018-11-28T22:15:02.323Z,80.00
2018-11-28T22:17:29.857Z,80.98
2018-11-28T22:19:57.343Z,81.65
2018-11-28T22:22:24.817Z,82.14
2018-11-28T22:24:52.234Z,82.26
2018-11-28T22:27:19.687Z,82.60
2018-11-28T22:29:47.157Z,82.73
2018-11-28T22:32:14.629Z,82.76
2018-11-28T22:34:42.109Z,82.79
2018-11-28T22:37:09.736Z,83.23
2018-11-28T22:39:37.209Z,84.29
2018-11-28T22:42:05.022Z,84.85
2018-11-28T22:44:32.505Z,84.90
2018-11-28T22:46:59.951Z,84.46
2018-11-28T22:49:27.399Z,84.20
2018-11-28T22:51:54.983Z,84.31
2018-11-28T22:54:22.400Z,83.75
2018-11-28T22:56:49.886Z,83.75
2018-11-28T22:59:17.690Z,84.13
2018-11-28T23:02:55.667Z,83.47
2018-11-28T23:05:26.962Z,82.79
2018-11-28T23:07:55.605Z,82.37
2018-11-28T23:10:23.140Z,81.22
2018-11-28T23:12:50.900Z,80.98
2018-11-28T23:15:18.384Z,81.74
2018-11-28T23:17:45.920Z,81.27
2018-11-28T23:20:13.388Z,81.50
2018-11-28T23:22:40.919Z,81.46
2018-11-28T23:25:11.131Z,81.64
2018-11-28T23:27:38.722Z,81.64
2018-11-28T23:30:09.455Z,81.58
2018-11-28T23:32:36.949Z,80.84
2018-11-28T23:35:06.200Z,80.85
2018-11-28T23:37:33.675Z,81.08
2018-11-28T23:40:01.098Z,80.77
2018-11-28T23:42:28.635Z,80.86
2018-11-28T23:44:56.112Z,81.01
2018-11-28T23:47:24.658Z,80.71
2018-11-28T23:49:52.105Z,80.18
2018-11-28T23:52:19.553Z,80.69
2018-11-28T23:54:46.951Z,80.38
2018-11-28T23:57:14.409Z,80.59
2018-11-28T23:59:41.844Z,80.42
